Time;durP1;ratioP1;P1;durP2;ratioP2;P2;SDS_P1;SDS_P2;PMS_P1;PMS_P2;Temp;Humidity;BMP_temperature;BMP_pressure;BME280_temperature;BME280_humidity;BME280_pressure;Samples;Min_cycle;Max_cycle;Signal;HPM_P1;HPM_P2
2024/04/08 00:00:07;;;;;;;8.18;2.47;;;;;;;;;;6181515;28;20050;-87
2024/04/08 00:03:08;;;;;;;7.70;2.80;;;;;;;;;;6170337;28;20125;-89
2024/04/08 00:06:09;;;;;;;7.90;2.60;;;;;;;;;;6186880;28;20050;-88
2024/04/08 00:09:10;;;;;;;7.53;2.40;;;;;;;;;;6155682;28;20503;-89
2024/04/08 00:12:11;;;;;;;7.03;2.67;;;;;;;;;;6186286;28;20129;-87
2024/04/08 00:15:13;;;;;;;4.60;2.63;;;;;;;;;;6165609;28;20058;-88
2024/04/08 00:18:14;;;;;;;7.88;2.53;;;;;;;;;;6157218;28;20046;-88
2024/04/08 00:21:15;;;;;;;6.90;2.50;;;;;;;;;;6173232;28;20508;-87
2024/04/08 00:24:17;;;;;;;6.07;2.88;;;;;;;;;;6165574;28;20046;-88
2024/04/08 00:27:18;;;;;;;7.53;2.30;;;;;;;;;;6157017;28;20046;-88
2024/04/08 00:30:19;;;;;;;5.63;2.70;;;;;;;;;;6206064;28;20044;-88
2024/04/08 00:33:20;;;;;;;8.07;2.85;;;;;;;;;;6174844;28;20053;-88
2024/04/08 00:36:20;;;;;;;7.35;2.72;;;;;;;;;;6159830;28;20586;-88
2024/04/08 00:39:21;;;;;;;9.65;2.60;;;;;;;;;;6167088;28;20051;-88
2024/04/08 00:42:22;;;;;;;5.43;2.60;;;;;;;;;;6160456;28;20039;-88
2024/04/08 00:45:23;;;;;;;6.95;2.80;;;;;;;;;;6159619;28;20054;-87
2024/04/08 00:48:25;;;;;;;6.72;2.33;;;;;;;;;;6149966;28;20050;-87
2024/04/08 00:51:26;;;;;;;9.03;2.80;;;;;;;;;;6167376;28;20046;-88
2024/04/08 00:54:28;;;;;;;6.72;2.47;;;;;;;;;;6162324;28;20041;-87
2024/04/08 00:57:30;;;;;;;5.70;2.60;;;;;;;;;;6155868;28;20046;-88
2024/04/08 01:00:31;;;;;;;9.45;2.58;;;;;;;;;;6164848;28;20109;-88
2024/04/08 01:03:32;;;;;;;5.90;2.45;;;;;;;;;;6163392;28;20042;-88
2024/04/08 01:06:33;;;;;;;4.82;2.42;;;;;;;;;;6178378;28;20042;-87
2024/04/08 01:09:33;;;;;;;4.75;2.30;;;;;;;;;;6149045;28;20126;-86
2024/04/08 01:12:34;;;;;;;10.75;2.40;;;;;;;;;;6164757;28;20049;-86
2024/04/08 01:15:36;;;;;;;6.97;2.53;;;;;;;;;;6164736;28;20125;-87
2024/04/08 01:18:37;;;;;;;6.97;2.80;;;;;;;;;;6167460;28;20049;-88
2024/04/08 01:21:39;;;;;;;7.40;2.55;;;;;;;;;;6186400;28;20046;-88
2024/04/08 01:24:40;;;;;;;8.53;2.40;;;;;;;;;;6162632;28;20061;-87
2024/04/08 01:27:41;;;;;;;7.53;2.42;;;;;;;;;;6172588;28;20054;-88
2024/04/08 01:30:42;;;;;;;8.48;2.40;;;;;;;;;;6176000;28;20069;-88
2024/04/08 01:33:43;;;;;;;6.30;2.60;;;;;;;;;;6171998;28;20042;-88
2024/04/08 01:36:44;;;;;;;10.55;2.80;;;;;;;;;;6184616;28;20053;-88
2024/04/08 01:39:45;;;;;;;4.13;2.42;;;;;;;;;;6166043;28;20077;-87
2024/04/08 01:42:45;;;;;;;6.15;2.20;;;;;;;;;;6157982;28;20097;-88
2024/04/08 01:45:46;;;;;;;9.23;2.45;;;;;;;;;;6165586;28;20061;-88
2024/04/08 01:48:47;;;;;;;6.68;2.95;;;;;;;;;;6152826;28;20079;-87
2024/04/08 01:51:48;;;;;;;7.80;2.80;;;;;;;;;;6169605;28;20039;-88
2024/04/08 01:54:48;;;;;;;5.65;2.15;;;;;;;;;;6185897;28;20441;-87
2024/04/08 01:57:51;;;;;;;5.85;2.15;;;;;;;;;;6187717;28;20034;-87
2024/04/08 02:00:52;;;;;;;9.15;2.55;;;;;;;;;;6201936;28;20048;-88
2024/04/08 02:03:52;;;;;;;7.50;2.08;;;;;;;;;;6159738;28;20047;-87
2024/04/08 02:06:53;;;;;;;6.38;2.40;;;;;;;;;;6171139;28;20077;-88
2024/04/08 02:09:54;;;;;;;9.50;2.42;;;;;;;;;;6164805;28;20062;-87
2024/04/08 02:12:55;;;;;;;5.25;3.00;;;;;;;;;;6183703;28;20071;-87
2024/04/08 02:15:55;;;;;;;8.98;2.40;;;;;;;;;;6163974;28;20144;-88
2024/04/08 02:18:56;;;;;;;8.52;2.65;;;;;;;;;;6154196;28;20456;-88
2024/04/08 02:21:57;;;;;;;9.75;2.72;;;;;;;;;;6192932;28;20077;-87
2024/04/08 02:24:58;;;;;;;7.22;2.88;;;;;;;;;;6196390;28;20054;-87
2024/04/08 02:27:58;;;;;;;7.90;2.60;;;;;;;;;;6200886;28;20070;-87
2024/04/08 02:31:03;;;;;;;6.97;2.40;;;;;;;;;;6164413;28;20046;-87
2024/04/08 02:34:04;;;;;;;6.95;2.97;;;;;;;;;;6150602;28;20050;-87
2024/04/08 02:37:05;;;;;;;6.75;2.72;;;;;;;;;;6184055;28;20042;-87
2024/04/08 02:40:10;;;;;;;6.82;2.75;;;;;;;;;;6179681;28;20039;-87
2024/04/08 02:43:11;;;;;;;4.15;2.65;;;;;;;;;;6158129;28;20399;-87
2024/04/08 02:46:12;;;;;;;3.75;2.17;;;;;;;;;;6162596;28;20050;-87
2024/04/08 02:49:13;;;;;;;6.82;2.40;;;;;;;;;;6147912;28;20046;-88
2024/04/08 02:52:13;;;;;;;6.50;2.63;;;;;;;;;;6153147;28;20653;-87
2024/04/08 02:55:14;;;;;;;11.38;2.50;;;;;;;;;;6166766;28;20046;-87
2024/04/08 02:58:15;;;;;;;5.95;2.70;;;;;;;;;;6186018;28;20042;-87
2024/04/08 03:01:15;;;;;;;5.55;3.00;;;;;;;;;;6159980;28;20058;-86
2024/04/08 03:04:16;;;;;;;10.05;2.80;;;;;;;;;;6184545;28;20103;-87
2024/04/08 03:07:17;;;;;;;10.90;3.20;;;;;;;;;;6169332;28;20694;-87
2024/04/08 03:10:18;;;;;;;6.85;2.72;;;;;;;;;;6160073;28;20054;-86
2024/04/08 03:13:19;;;;;;;5.18;3.15;;;;;;;;;;6178529;28;20042;-87
2024/04/08 03:16:19;;;;;;;6.28;3.25;;;;;;;;;;6158946;28;20503;-87
2024/04/08 03:19:20;;;;;;;4.85;2.58;;;;;;;;;;6147713;28;20046;-87
2024/04/08 03:22:21;;;;;;;6.22;2.63;;;;;;;;;;6165809;28;20054;-86
2024/04/08 03:25:22;;;;;;;7.00;2.80;;;;;;;;;;6176037;28;20110;-87
2024/04/08 03:28:23;;;;;;;6.53;3.63;;;;;;;;;;6208064;28;20456;-86
2024/04/08 03:31:24;;;;;;;7.03;3.15;;;;;;;;;;6169813;28;20454;-86
2024/04/08 03:34:25;;;;;;;8.00;3.28;;;;;;;;;;6164156;28;20167;-87
2024/04/08 03:37:26;;;;;;;8.02;2.83;;;;;;;;;;6181138;28;21014;-87
2024/04/08 03:40:27;;;;;;;6.82;2.83;;;;;;;;;;6181271;28;20053;-86
2024/04/08 03:43:28;;;;;;;6.93;3.50;;;;;;;;;;6183457;28;20053;-87
2024/04/08 03:46:29;;;;;;;6.43;3.08;;;;;;;;;;6168153;28;20074;-87
2024/04/08 03:49:29;;;;;;;8.30;3.08;;;;;;;;;;6167868;28;20039;-86
2024/04/08 03:52:30;;;;;;;7.40;2.83;;;;;;;;;;6171380;28;20046;-86
2024/04/08 03:55:31;;;;;;;5.43;2.88;;;;;;;;;;6177916;28;20072;-87
2024/04/08 03:58:32;;;;;;;5.82;2.95;;;;;;;;;;6154034;28;20045;-87
2024/04/08 04:01:33;;;;;;;6.20;3.03;;;;;;;;;;6166875;28;20045;-86
2024/04/08 04:04:33;;;;;;;7.82;2.70;;;;;;;;;;6176828;28;20073;-87
2024/04/08 04:07:34;;;;;;;9.57;3.20;;;;;;;;;;6172245;28;20053;-87
2024/04/08 04:10:35;;;;;;;8.45;3.00;;;;;;;;;;6165715;28;20092;-87
2024/04/08 04:13:36;;;;;;;10.00;3.17;;;;;;;;;;6184503;28;20134;-87
2024/04/08 04:16:36;;;;;;;6.18;3.15;;;;;;;;;;6152520;28;20393;-87
2024/04/08 04:19:37;;;;;;;8.32;2.88;;;;;;;;;;6153467;28;20411;-87
2024/04/08 04:22:38;;;;;;;9.93;2.92;;;;;;;;;;6170040;28;20073;-87
2024/04/08 04:25:39;;;;;;;11.02;3.63;;;;;;;;;;6154431;28;20081;-86
2024/04/08 04:28:41;;;;;;;5.10;2.80;;;;;;;;;;6174816;28;20140;-88
2024/04/08 04:31:44;;;;;;;9.48;3.58;;;;;;;;;;6184662;28;20046;-89
2024/04/08 04:34:44;;;;;;;6.65;3.15;;;;;;;;;;6212764;28;20038;-90
2024/04/08 04:37:47;;;;;;;6.80;3.13;;;;;;;;;;6196819;28;20065;-89
2024/04/08 04:40:58;;;;;;;9.37;3.63;;;;;;;;;;6203060;28;20046;-89
2024/04/08 04:43:59;;;;;;;6.82;3.55;;;;;;;;;;6198342;28;20026;-89
2024/04/08 04:47:00;;;;;;;7.00;3.03;;;;;;;;;;6205116;28;20049;-88
2024/04/08 04:50:02;;;;;;;4.60;3.20;;;;;;;;;;6176520;28;20050;-87
2024/04/08 04:53:04;;;;;;;7.03;3.28;;;;;;;;;;6155676;28;20066;-87
2024/04/08 04:56:05;;;;;;;6.15;3.85;;;;;;;;;;6155157;28;20052;-89
2024/04/08 04:59:06;;;;;;;8.27;3.40;;;;;;;;;;6194191;28;20026;-89
2024/04/08 05:02:07;;;;;;;7.10;3.65;;;;;;;;;;6161833;28;20480;-87
2024/04/08 05:05:09;;;;;;;9.30;3.83;;;;;;;;;;6168234;28;20043;-87
2024/04/08 05:08:09;;;;;;;8.48;3.42;;;;;;;;;;6185370;28;20092;-87
2024/04/08 05:11:10;;;;;;;7.60;3.40;;;;;;;;;;6170075;28;20058;-87
2024/04/08 05:14:11;;;;;;;6.95;3.20;;;;;;;;;;6212650;28;20050;-89
2024/04/08 05:17:12;;;;;;;8.05;3.97;;;;;;;;;;6198478;28;20051;-87
2024/04/08 05:20:14;;;;;;;7.10;3.78;;;;;;;;;;6133883;28;20503;-87
2024/04/08 05:23:15;;;;;;;10.55;3.97;;;;;;;;;;6168183;28;20046;-87
2024/04/08 05:26:17;;;;;;;5.50;3.50;;;;;;;;;;6157754;28;20468;-88
2024/04/08 05:29:17;;;;;;;6.97;3.17;;;;;;;;;;6178820;28;20129;-88
2024/04/08 05:32:18;;;;;;;8.18;3.97;;;;;;;;;;6153716;28;20050;-87
2024/04/08 05:35:19;;;;;;;10.63;3.85;;;;;;;;;;6145753;28;20928;-87
2024/04/08 05:38:20;;;;;;;8.55;3.80;;;;;;;;;;6179687;28;20571;-87
2024/04/08 05:41:21;;;;;;;10.60;4.13;;;;;;;;;;6167085;28;20051;-87
2024/04/08 05:44:22;;;;;;;9.25;3.75;;;;;;;;;;6142965;28;20499;-86
2024/04/08 05:47:23;;;;;;;11.70;4.15;;;;;;;;;;6155806;28;20057;-86
2024/04/08 05:50:27;;;;;;;9.15;3.58;;;;;;;;;;6146758;28;20074;-87
2024/04/08 05:53:31;;;;;;;7.40;3.20;;;;;;;;;;6147560;28;20520;-87
2024/04/08 05:56:32;;;;;;;8.80;3.60;;;;;;;;;;6154859;28;20117;-87
2024/04/08 05:59:34;;;;;;;7.70;3.00;;;;;;;;;;6169020;28;20575;-87
2024/04/08 06:02:35;;;;;;;5.20;3.33;;;;;;;;;;6170321;28;20133;-87
2024/04/08 06:05:40;;;;;;;5.22;3.00;;;;;;;;;;6158285;28;20079;-88
2024/04/08 06:08:42;;;;;;;4.88;2.92;;;;;;;;;;6152779;28;20455;-88
2024/04/08 06:11:43;;;;;;;10.35;3.65;;;;;;;;;;6141382;28;20042;-88
2024/04/08 06:14:47;;;;;;;6.22;3.55;;;;;;;;;;6128708;28;20197;-87
2024/04/08 06:17:49;;;;;;;8.95;3.60;;;;;;;;;;6152530;28;20066;-87
2024/04/08 06:20:56;;;;;;;10.18;3.63;;;;;;;;;;6175622;28;20120;-88
2024/04/08 06:23:57;;;;;;;8.75;3.83;;;;;;;;;;6176001;28;20034;-89
2024/04/08 06:27:05;;;;;;;6.50;3.83;;;;;;;;;;6197141;28;20026;-91
2024/04/08 06:30:09;;;;;;;5.75;3.15;;;;;;;;;;6199122;28;20042;-89
2024/04/08 06:33:10;;;;;;;6.30;3.50;;;;;;;;;;6157628;28;20049;-89
2024/04/08 06:36:15;;;;;;;8.57;3.53;;;;;;;;;;6151137;28;20061;-89
2024/04/08 06:39:16;;;;;;;10.52;3.00;;;;;;;;;;6142420;28;20046;-89
2024/04/08 06:42:20;;;;;;;7.63;3.42;;;;;;;;;;6149906;28;20043;-89
2024/04/08 06:45:22;;;;;;;8.90;3.38;;;;;;;;;;6134058;28;20046;-89
2024/04/08 06:48:23;;;;;;;6.05;2.88;;;;;;;;;;6163501;28;20514;-89
2024/04/08 06:51:25;;;;;;;7.88;3.30;;;;;;;;;;6160398;28;20050;-89
2024/04/08 06:54:26;;;;;;;8.45;3.28;;;;;;;;;;6143462;28;20069;-88
2024/04/08 06:57:27;;;;;;;9.23;3.08;;;;;;;;;;6146828;28;20054;-89
2024/04/08 07:00:29;;;;;;;6.85;2.88;;;;;;;;;;6140017;28;20073;-88
2024/04/08 07:03:30;;;;;;;7.10;3.03;;;;;;;;;;6118755;28;20050;-89
2024/04/08 07:06:31;;;;;;;11.45;3.50;;;;;;;;;;6161401;28;20038;-89
2024/04/08 07:09:32;;;;;;;6.88;2.88;;;;;;;;;;6168526;28;20038;-90
2024/04/08 07:12:33;;;;;;;8.50;3.35;;;;;;;;;;6134188;28;20062;-87
2024/04/08 07:15:38;;;;;;;5.97;2.90;;;;;;;;;;6146177;28;20051;-87
2024/04/08 07:18:42;;;;;;;8.38;2.05;;;;;;;;;;6135933;28;20420;-87
2024/04/08 07:21:46;;;;;;;4.40;1.63;;;;;;;;;;6144429;28;20046;-87
2024/04/08 07:24:51;;;;;;;7.65;2.17;;;;;;;;;;6137813;28;20049;-88
2024/04/08 07:27:52;;;;;;;6.07;2.33;;;;;;;;;;6122676;28;20087;-88
2024/04/08 07:30:55;;;;;;;4.43;1.75;;;;;;;;;;6140679;28;20050;-88
2024/04/08 07:33:59;;;;;;;8.38;1.80;;;;;;;;;;6100848;28;20045;-88
2024/04/08 07:37:00;;;;;;;4.30;1.98;;;;;;;;;;6139938;28;20184;-88
2024/04/08 07:40:02;;;;;;;6.43;2.10;;;;;;;;;;6147172;28;20049;-89
2024/04/08 07:43:04;;;;;;;6.85;2.08;;;;;;;;;;6164977;28;20061;-89
2024/04/08 07:46:07;;;;;;;5.63;1.80;;;;;;;;;;6157771;28;20042;-87
2024/04/08 07:49:08;;;;;;;4.30;2.25;;;;;;;;;;6186458;28;20125;-87
2024/04/08 07:52:10;;;;;;;5.60;1.67;;;;;;;;;;6182348;28;20031;-88
2024/04/08 07:55:11;;;;;;;7.82;2.60;;;;;;;;;;6194864;28;20034;-88
2024/04/08 07:58:12;;;;;;;5.55;2.25;;;;;;;;;;6175354;28;20038;-87
2024/04/08 08:01:13;;;;;;;7.47;1.73;;;;;;;;;;6195656;28;20563;-88
2024/04/08 08:04:15;;;;;;;6.05;1.70;;;;;;;;;;6159220;28;20050;-87
2024/04/08 08:07:16;;;;;;;8.85;1.80;;;;;;;;;;6175079;28;20051;-87
2024/04/08 08:10:19;;;;;;;7.60;1.67;;;;;;;;;;6162291;28;20182;-86
2024/04/08 08:13:20;;;;;;;3.20;1.30;;;;;;;;;;6152688;28;20212;-87
2024/04/08 08:16:21;;;;;;;8.95;1.60;;;;;;;;;;6149336;28;20133;-87
2024/04/08 08:19:22;;;;;;;5.28;1.60;;;;;;;;;;6178213;28;20055;-87
2024/04/08 08:22:24;;;;;;;8.10;1.40;;;;;;;;;;6151779;28;20089;-87
2024/04/08 08:25:29;;;;;;;4.85;1.40;;;;;;;;;;6148025;28;20066;-87
2024/04/08 08:28:31;;;;;;;6.07;1.60;;;;;;;;;;6170878;28;20043;-87
2024/04/08 08:31:32;;;;;;;4.60;1.70;;;;;;;;;;6147759;28;20054;-87
2024/04/08 08:34:33;;;;;;;5.28;1.48;;;;;;;;;;6150349;28;20565;-87
2024/04/08 08:37:34;;;;;;;4.28;1.50;;;;;;;;;;6158227;28;20785;-87
2024/04/08 08:40:41;;;;;;;6.40;1.40;;;;;;;;;;6165184;28;20128;-87
2024/04/08 08:43:45;;;;;;;5.13;1.17;;;;;;;;;;6183381;28;20042;-88
2024/04/08 08:46:48;;;;;;;5.82;1.50;;;;;;;;;;6153735;28;20094;-87
2024/04/08 08:49:52;;;;;;;6.38;1.60;;;;;;;;;;6176266;28;20121;-87
2024/04/08 08:52:53;;;;;;;7.35;1.65;;;;;;;;;;6182843;28;20039;-87
2024/04/08 08:55:57;;;;;;;3.55;1.45;;;;;;;;;;6162179;28;20432;-88
2024/04/08 08:59:01;;;;;;;6.88;1.40;;;;;;;;;;6158647;28;20047;-88
2024/04/08 09:02:04;;;;;;;5.80;1.65;;;;;;;;;;6156518;28;20046;-87
2024/04/08 09:05:05;;;;;;;6.72;1.90;;;;;;;;;;6180828;28;20129;-87
2024/04/08 09:10:58;;;;;;;5.07;1.42;;;;;;;;;;6674624;25;20884;-83
2024/04/08 09:14:07;;;;;;;6.30;1.63;;;;;;;;;;6581601;26;19998;-84
2024/04/08 09:17:10;;;;;;;3.58;1.63;;;;;;;;;;6613882;26;20428;-84
2024/04/08 09:20:13;;;;;;;19.17;3.15;;;;;;;;;;6615152;26;20006;-83
2024/04/08 09:23:16;;;;;;;5.63;1.50;;;;;;;;;;6593442;26;20005;-84
2024/04/08 09:26:18;;;;;;;7.65;1.60;;;;;;;;;;6625950;26;20012;-82
2024/04/08 09:29:20;;;;;;;8.02;1.60;;;;;;;;;;6613660;26;20029;-81
2024/04/08 09:32:24;;;;;;;7.25;1.90;;;;;;;;;;6617960;26;20019;-82
2024/04/08 09:35:27;;;;;;;7.18;1.60;;;;;;;;;;6606539;26;20014;-81
2024/04/08 09:38:31;;;;;;;5.43;1.70;;;;;;;;;;6588660;26;20017;-81
2024/04/08 09:41:38;;;;;;;5.57;1.75;;;;;;;;;;6617680;26;20055;-81
2024/04/08 09:44:43;;;;;;;6.03;1.33;;;;;;;;;;6639491;26;20008;-81
2024/04/08 09:47:46;;;;;;;4.47;1.40;;;;;;;;;;6645943;26;20001;-81
2024/04/08 09:50:50;;;;;;;6.95;1.48;;;;;;;;;;6604594;26;20005;-82
2024/04/08 09:53:53;;;;;;;5.45;1.60;;;;;;;;;;6607359;26;20469;-84
2024/04/08 09:57:03;;;;;;;4.97;1.27;;;;;;;;;;6624119;26;20016;-84
2024/04/08 10:00:12;;;;;;;4.53;1.55;;;;;;;;;;6618364;26;19997;-84
2024/04/08 10:03:15;;;;;;;6.85;1.63;;;;;;;;;;6613332;26;20002;-84
2024/04/08 10:06:19;;;;;;;6.03;2.17;;;;;;;;;;6597676;26;20002;-81
2024/04/08 10:09:21;;;;;;;3.28;1.20;;;;;;;;;;6603144;26;19997;-81
2024/04/08 10:12:36;;;;;;;6.85;1.50;;;;;;;;;;6614666;26;20016;-80
2024/04/08 10:15:38;;;;;;;5.90;1.50;;;;;;;;;;6603057;26;20037;-81
2024/04/08 10:18:57;;;;;;;4.90;1.38;;;;;;;;;;6601060;26;20354;-81
2024/04/08 10:22:00;;;;;;;4.25;1.30;;;;;;;;;;6604129;26;20005;-82
2024/04/08 10:25:03;;;;;;;5.38;1.50;;;;;;;;;;6576379;26;20021;-82
2024/04/08 10:28:05;;;;;;;;;;;;;;;;;;6577967;26;21558;-81
2024/04/08 10:31:08;;;;;;;6.70;1.42;;;;;;;;;;6593507;26;19934;-79
2024/04/08 10:34:13;;;;;;;4.00;1.45;;;;;;;;;;6579935;26;20002;-78
2024/04/08 10:37:16;;;;;;;4.90;1.30;;;;;;;;;;6580955;26;20035;-78
2024/04/08 10:40:21;;;;;;;5.95;1.42;;;;;;;;;;6568131;26;20009;-79
2024/04/08 10:43:24;;;;;;;4.20;1.48;;;;;;;;;;6584183;26;20005;-79
2024/04/08 10:46:27;;;;;;;7.32;1.70;;;;;;;;;;6587045;26;20019;-78
2024/04/08 10:49:30;;;;;;;2.92;1.45;;;;;;;;;;6580123;26;20023;-79
2024/04/08 10:52:34;;;;;;;7.40;1.55;;;;;;;;;;6569320;26;20014;-79
2024/04/08 10:55:37;;;;;;;5.88;1.50;;;;;;;;;;6616819;26;20017;-78
2024/04/08 10:58:39;;;;;;;3.55;1.58;;;;;;;;;;6620030;26;20018;-80
2024/04/08 11:01:41;;;;;;;7.53;1.40;;;;;;;;;;6629343;26;20009;-78
2024/04/08 11:04:43;;;;;;;7.13;2.10;;;;;;;;;;6575693;26;20082;-77
2024/04/08 11:07:46;;;;;;;5.65;1.42;;;;;;;;;;6593158;26;20006;-81
2024/04/08 11:10:50;;;;;;;5.03;1.88;;;;;;;;;;6601111;26;20020;-83
2024/04/08 11:13:52;;;;;;;7.28;2.08;;;;;;;;;;6583090;26;20023;-83
2024/04/08 11:16:59;;;;;;;;;;;;;;;;;;6594621;26;20005;-82
2024/04/08 11:20:04;;;;;;;4.65;1.30;;;;;;;;;;6599820;26;19942;-79
2024/04/08 11:23:09;;;;;;;7.82;1.50;;;;;;;;;;6574165;26;20046;-81
2024/04/08 11:26:12;;;;;;;3.75;1.40;;;;;;;;;;6613655;26;20018;-82
2024/04/08 11:29:14;;;;;;;6.43;1.65;;;;;;;;;;6591629;26;20002;-82
2024/04/08 11:32:16;;;;;;;5.28;1.45;;;;;;;;;;6591536;26;20008;-81
2024/04/08 11:35:19;;;;;;;6.85;1.92;;;;;;;;;;6573644;26;20013;-80
2024/04/08 11:38:22;;;;;;;10.88;1.90;;;;;;;;;;6612265;26;20013;-80
2024/04/08 11:41:37;;;;;;;9.35;1.70;;;;;;;;;;6592366;26;20017;-81
2024/04/08 11:44:42;;;;;;;7.78;1.33;;;;;;;;;;6610148;26;20008;-81
2024/04/08 11:47:45;;;;;;;7.05;1.67;;;;;;;;;;6567604;26;20577;-78
2024/04/08 11:50:47;;;;;;;9.27;1.70;;;;;;;;;;6590622;26;20006;-81
2024/04/08 11:53:50;;;;;;;8.43;1.60;;;;;;;;;;6577715;26;20006;-79
2024/04/08 11:56:52;;;;;;;4.82;1.58;;;;;;;;;;6585244;26;20015;-81
2024/04/08 11:59:55;;;;;;;8.80;1.63;;;;;;;;;;6587614;26;20036;-79
2024/04/08 12:02:57;;;;;;;;;;;;;;;;;;6594171;26;20257;-79
2024/04/08 12:06:00;;;;;;;9.33;2.03;;;;;;;;;;6594217;26;19996;-77
2024/04/08 12:09:05;;;;;;;6.65;1.80;;;;;;;;;;6553350;26;20007;-78
2024/04/08 12:12:09;;;;;;;6.75;1.65;;;;;;;;;;6581077;26;20495;-78
2024/04/08 12:15:12;;;;;;;7.13;2.08;;;;;;;;;;6582491;26;20012;-79
2024/04/08 12:18:15;;;;;;;11.05;2.13;;;;;;;;;;6588668;26;20009;-78
2024/04/08 12:21:17;;;;;;;6.90;1.60;;;;;;;;;;6573047;26;20017;-79
2024/04/08 12:24:19;;;;;;;7.82;1.70;;;;;;;;;;6580083;26;20003;-78
2024/04/08 12:27:27;;;;;;;6.97;1.88;;;;;;;;;;6585757;26;20017;-78
2024/04/08 12:30:29;;;;;;;10.13;1.50;;;;;;;;;;6577278;26;20005;-77
2024/04/08 12:33:32;;;;;;;7.28;1.38;;;;;;;;;;6583258;26;19998;-78
2024/04/08 12:36:34;;;;;;;8.27;1.85;;;;;;;;;;6589075;26;20010;-77
2024/04/08 12:39:39;;;;;;;10.68;2.30;;;;;;;;;;6575621;26;20017;-77
2024/04/08 12:42:41;;;;;;;8.77;1.70;;;;;;;;;;6581568;26;20002;-77
2024/04/08 12:45:43;;;;;;;12.40;3.55;;;;;;;;;;6588475;26;19998;-77
2024/04/08 12:48:45;;;;;;;7.72;1.92;;;;;;;;;;6549492;26;20018;-77
2024/04/08 12:51:48;;;;;;;20.13;5.32;;;;;;;;;;6573990;26;20001;-77
2024/04/08 12:54:52;;;;;;;8.00;2.33;;;;;;;;;;6578134;26;20017;-76
2024/04/08 12:57:54;;;;;;;6.57;1.65;;;;;;;;;;6584201;26;20010;-77
2024/04/08 13:00:56;;;;;;;6.38;1.80;;;;;;;;;;6590035;26;20339;-77
2024/04/08 13:03:59;;;;;;;6.20;1.50;;;;;;;;;;6550150;26;20006;-78
2024/04/08 13:07:02;;;;;;;9.70;2.05;;;;;;;;;;6568416;26;20006;-78
2024/04/08 13:10:06;;;;;;;9.82;1.70;;;;;;;;;;6581983;26;20060;-77
2024/04/08 13:13:09;;;;;;;9.02;1.65;;;;;;;;;;6603981;26;20343;-78
2024/04/08 13:16:11;;;;;;;13.25;2.15;;;;;;;;;;6595344;26;20004;-78
2024/04/08 13:19:14;;;;;;;7.55;1.67;;;;;;;;;;6570083;26;20362;-79
2024/04/08 13:22:16;;;;;;;11.88;2.33;;;;;;;;;;6583159;26;20020;-78
2024/04/08 13:25:20;;;;;;;6.80;2.13;;;;;;;;;;6573263;26;20006;-77
2024/04/08 13:28:23;;;;;;;8.38;1.77;;;;;;;;;;6589694;26;20056;-76
2024/04/08 13:31:26;;;;;;;11.32;2.00;;;;;;;;;;6583347;26;20041;-76
2024/04/08 13:34:28;;;;;;;8.05;1.95;;;;;;;;;;6570496;26;20039;-78
2024/04/08 13:37:31;;;;;;;9.38;1.90;;;;;;;;;;6584989;26;20108;-80
2024/04/08 13:40:33;;;;;;;11.30;1.92;;;;;;;;;;6584205;26;20001;-78
2024/04/08 13:43:35;;;;;;;;;;;;;;;;;;6588969;26;20014;-77
2024/04/08 13:46:39;;;;;;;8.80;1.53;;;;;;;;;;6603396;26;19932;-79
2024/04/08 13:49:41;;;;;;;9.57;1.85;;;;;;;;;;6579441;26;20021;-77
2024/04/08 13:52:47;;;;;;;11.23;2.17;;;;;;;;;;6579716;26;20639;-77
2024/04/08 13:55:58;;;;;;;19.83;2.60;;;;;;;;;;6576355;26;20470;-75
2024/04/08 13:59:00;;;;;;;8.75;1.70;;;;;;;;;;6600808;26;20012;-77
2024/04/08 14:02:03;;;;;;;9.02;1.67;;;;;;;;;;6594358;26;19998;-75
2024/04/08 14:05:06;;;;;;;9.55;2.00;;;;;;;;;;6596209;26;20078;-76
2024/04/08 14:08:08;;;;;;;7.95;1.38;;;;;;;;;;6593103;26;20021;-80
2024/04/08 14:11:11;;;;;;;11.95;2.20;;;;;;;;;;6600516;26;20017;-81
2024/04/08 14:14:14;;;;;;;8.75;2.00;;;;;;;;;;6563439;26;20081;-78
2024/04/08 14:17:16;;;;;;;;;;;;;;;;;;6602218;26;20038;-80
2024/04/08 14:20:19;;;;;;;9.75;1.55;;;;;;;;;;6572434;26;19930;-83
2024/04/08 14:23:22;;;;;;;9.85;2.00;;;;;;;;;;6581073;26;20001;-82
2024/04/08 14:26:26;;;;;;;10.07;2.05;;;;;;;;;;6598061;26;20024;-82
2024/04/08 14:29:28;;;;;;;8.40;1.55;;;;;;;;;;6597055;26;20025;-83
2024/04/08 14:32:35;;;;;;;8.80;1.80;;;;;;;;;;6590983;26;20343;-82
2024/04/08 14:35:37;;;;;;;6.78;1.83;;;;;;;;;;6574978;26;20016;-82
2024/04/08 14:38:39;;;;;;;;;;;;;;;;;;6601076;26;20006;-82
2024/04/08 14:41:57;;;;;;;8.32;1.85;;;;;;;;;;6604117;26;19939;-82
2024/04/08 14:45:00;;;;;;;9.98;1.80;;;;;;;;;;6615375;26;20057;-79
2024/04/08 14:48:06;;;;;;;7.45;1.38;;;;;;;;;;6583207;26;20447;-80
2024/04/08 14:51:09;;;;;;;8.02;1.83;;;;;;;;;;6586654;26;20002;-81
2024/04/08 14:54:11;;;;;;;5.47;1.70;;;;;;;;;;6573810;26;20368;-78
2024/04/08 14:57:13;;;;;;;;;;;;;;;;;;6614529;26;20527;-80
2024/04/08 15:00:16;;;;;;;11.63;1.85;;;;;;;;;;6584308;26;19954;-80
2024/04/08 15:03:18;;;;;;;6.72;1.48;;;;;;;;;;6608340;26;19998;-79
2024/04/08 15:06:21;;;;;;;10.15;1.65;;;;;;;;;;6559066;26;20026;-77
2024/04/08 15:09:24;;;;;;;;;;;;;;;;;;6573767;26;20017;-79
2024/04/08 15:12:26;;;;;;;;;;;;;;;;;;6568617;26;20268;-79
2024/04/08 15:15:28;;;;;;;5.93;1.60;;;;;;;;;;6586906;26;19938;-78
2024/04/08 15:18:31;;;;;;;14.32;2.08;;;;;;;;;;6578019;26;20001;-78
2024/04/08 15:21:33;;;;;;;;;;;;;;;;;;6598853;26;20015;-76
2024/04/08 15:24:35;;;;;;;8.35;1.55;;;;;;;;;;6557566;26;19955;-76
2024/04/08 15:27:38;;;;;;;5.70;1.52;;;;;;;;;;6579295;26;20012;-76
2024/04/08 15:30:41;;;;;;;7.40;1.75;;;;;;;;;;6577814;26;20103;-77
2024/04/08 15:33:44;;;;;;;9.30;2.00;;;;;;;;;;6558882;26;20076;-77
2024/04/08 15:36:47;;;;;;;6.75;1.38;;;;;;;;;;6552932;26;20001;-77
2024/04/08 15:39:50;;;;;;;6.38;1.55;;;;;;;;;;6577302;26;20010;-76
2024/04/08 15:42:52;;;;;;;7.13;1.80;;;;;;;;;;6571832;26;20017;-77
2024/04/08 15:45:58;;;;;;;9.40;1.63;;;;;;;;;;6575791;26;20361;-77
2024/04/08 15:49:00;;;;;;;9.10;2.28;;;;;;;;;;6580994;26;21185;-77
2024/04/08 15:52:04;;;;;;;5.40;1.73;;;;;;;;;;6562670;26;20025;-77
2024/04/08 15:55:06;;;;;;;7.50;1.75;;;;;;;;;;6567924;26;20332;-76
2024/04/08 15:58:10;;;;;;;9.48;2.25;;;;;;;;;;6571954;26;20005;-76
2024/04/08 16:01:13;;;;;;;9.65;1.85;;;;;;;;;;6605202;26;20016;-76
2024/04/08 16:04:16;;;;;;;7.55;1.85;;;;;;;;;;6578703;26;20089;-78
2024/04/08 16:07:19;;;;;;;6.13;1.67;;;;;;;;;;6562368;26;20019;-77
2024/04/08 16:10:21;;;;;;;7.43;1.65;;;;;;;;;;6564230;26;20024;-76
2024/04/08 16:13:23;;;;;;;;;;;;;;;;;;6581418;26;20037;-79
2024/04/08 16:16:25;;;;;;;4.97;1.63;;;;;;;;;;6595510;26;20476;-77
2024/04/08 16:19:27;;;;;;;;;;;;;;;;;;6560930;26;20345;-77
2024/04/08 16:22:30;;;;;;;6.87;2.23;;;;;;;;;;6603519;26;20269;-77
2024/04/08 16:25:59;;;;;;;11.02;2.03;;;;;;;;;;6581727;26;20017;-78
2024/04/08 16:29:01;;;;;;;12.80;1.95;;;;;;;;;;6581368;26;20005;-79
2024/04/08 16:32:08;;;;;;;10.73;1.85;;;;;;;;;;6612352;26;20006;-80
2024/04/08 16:35:10;;;;;;;6.15;1.60;;;;;;;;;;6568317;26;20079;-80
2024/04/08 16:38:12;;;;;;;10.80;2.17;;;;;;;;;;6569945;26;20460;-79
2024/04/08 16:41:14;;;;;;;8.30;1.98;;;;;;;;;;6573528;26;20091;-79
2024/04/08 16:44:16;;;;;;;9.48;1.88;;;;;;;;;;6541025;26;20012;-78
2024/04/08 16:47:19;;;;;;;7.38;1.95;;;;;;;;;;6580946;26;20027;-80
2024/04/08 16:50:21;;;;;;;;;;;;;;;;;;6571989;26;20009;-79
2024/04/08 16:53:25;;;;;;;9.87;2.57;;;;;;;;;;6572806;26;19997;-78
2024/04/08 16:56:30;;;;;;;10.15;2.20;;;;;;;;;;6585111;26;20013;-78
2024/04/08 16:59:32;;;;;;;12.68;2.38;;;;;;;;;;6570775;26;20427;-78
2024/04/08 17:02:35;;;;;;;10.68;2.13;;;;;;;;;;6574552;26;20534;-78
2024/04/08 17:05:37;;;;;;;11.20;2.40;;;;;;;;;;6543747;26;20016;-79
2024/04/08 17:08:39;;;;;;;11.80;3.00;;;;;;;;;;6579551;26;20017;-79
2024/04/08 17:11:42;;;;;;;15.02;2.47;;;;;;;;;;6574994;26;20010;-78
2024/04/08 17:14:44;;;;;;;13.85;3.13;;;;;;;;;;6584189;26;20060;-78
2024/04/08 17:17:46;;;;;;;10.90;2.33;;;;;;;;;;6569782;26;20013;-78
2024/04/08 17:20:53;;;;;;;8.82;2.30;;;;;;;;;;6575211;26;20460;-78
2024/04/08 17:23:55;;;;;;;8.00;2.08;;;;;;;;;;6567755;26;20021;-83
2024/04/08 17:26:58;;;;;;;8.65;2.70;;;;;;;;;;6573333;26;20058;-82
2024/04/08 17:30:00;;;;;;;8.13;2.20;;;;;;;;;;6565373;26;20010;-82
2024/04/08 17:33:03;;;;;;;15.18;2.35;;;;;;;;;;6566031;26;20064;-84
2024/04/08 17:36:06;;;;;;;10.07;2.70;;;;;;;;;;6567157;26;20007;-82
2024/04/08 17:39:09;;;;;;;10.70;2.47;;;;;;;;;;6574550;26;20009;-83
2024/04/08 17:42:18;;;;;;;9.38;2.13;;;;;;;;;;6574853;26;20433;-83
2024/04/08 17:45:22;;;;;;;7.95;1.92;;;;;;;;;;6589764;26;20019;-83
2024/04/08 17:48:24;;;;;;;15.05;3.00;;;;;;;;;;6565355;26;20007;-83
2024/04/08 17:51:27;;;;;;;7.55;2.70;;;;;;;;;;6552211;26;20414;-83
2024/04/08 17:54:30;;;;;;;;;;;;;;;;;;6566373;26;20374;-83
2024/04/08 17:57:32;;;;;;;8.97;3.30;;;;;;;;;;6593032;26;19941;-83
2024/04/08 18:00:37;;;;;;;9.85;2.80;;;;;;;;;;6581318;26;20009;-82
2024/04/08 18:03:41;;;;;;;9.40;2.08;;;;;;;;;;6567159;26;20032;-82
2024/04/08 18:06:45;;;;;;;8.10;3.03;;;;;;;;;;6577876;26;20052;-83
2024/04/08 18:09:48;;;;;;;8.23;2.50;;;;;;;;;;6579159;26;20024;-83
2024/04/08 18:12:50;;;;;;;10.55;2.65;;;;;;;;;;6589254;26;20109;-82
2024/04/08 18:15:52;;;;;;;13.40;2.75;;;;;;;;;;6583760;26;20021;-85
2024/04/08 18:18:54;;;;;;;12.27;2.88;;;;;;;;;;6578688;26;20032;-85